»·PEaware :: N149CD KBFL-KVNY

N149CD :: KBFL-KVNY

FLIGHT INFORMATION

Flight Status: Arrived
Operator: Privately registered:
United States
More flights under this callsign
Pilot: Nathan E. (30132)
Aircraft: CESSNA 172 SKYHAWK
(C172)
More flights by this aircraft type
Origin: KBFL Meadows
United States
Destination: KVNY Van Nuys
United States
More flights between these airports :: More routes between these airports
Route: +MARIC4 LHS LYNXX8
File this flight plan on PilotEdge
Remarks:
Altitude:
(Current/Filed)
9,000ft
Speed:
(Current/Filed)
110kts
Departed: 31-Aug-20 02:30 PM
Arrived: 31-Aug-20 03:24 PM
Distance/Time
Traveled:
79nm/0:54
Distance/Time
To Go:
Arrived

Flight Plot

Page will automatically refresh every two minutes.


Map Options




Map Legend


Flown Route
Filed Route
Departure Airport
Arrival Airport
Navaid (VOR, NDB)
Fix

Horizontal Profiles

Position Reports

Time Latitude Longitude Heading Altitude Ground
Speed
31-Aug-20 14:18 35.429658 -119.046616 136 495ft 0kts
31-Aug-20 14:19 35.429658 -119.046616 136 495ft 0kts
31-Aug-20 14:20 35.429658 -119.046616 136 495ft 0kts
31-Aug-20 14:21 35.429658 -119.046616 136 495ft 0kts
31-Aug-20 14:22 35.429658 -119.046616 136 495ft 0kts
31-Aug-20 14:23 35.429658 -119.046616 136 495ft 0kts
31-Aug-20 14:24 35.429658 -119.046616 136 495ft 0kts
31-Aug-20 14:25 35.427083 -119.045768 136 484ft 20kts
31-Aug-20 14:26 35.425528 -119.044770 307 479ft 0kts
31-Aug-20 14:27 35.425528 -119.044769 307 479ft 0kts
31-Aug-20 14:28 35.426116 -119.046846 316 477ft 40kts
31-Aug-20 14:29 35.439782 -119.064401 290 1114ft 75kts
31-Aug-20 14:30 35.434874 -119.089369 251 1896ft 77kts
31-Aug-20 14:31 35.428165 -119.114343 251 2701ft 78kts
31-Aug-20 14:32 35.420910 -119.139456 247 3487ft 79kts
31-Aug-20 14:33 35.402680 -119.153312 207 4229ft 79kts
31-Aug-20 14:34 35.383225 -119.166496 209 4938ft 80kts
31-Aug-20 14:35 35.363679 -119.180286 209 5612ft 81kts
31-Aug-20 14:36 35.344028 -119.194221 209 6248ft 82kts
31-Aug-20 14:37 35.324209 -119.208276 209 6848ft 83kts
31-Aug-20 14:38 35.304166 -119.222481 209 7423ft 83kts
31-Aug-20 14:39 35.283938 -119.236806 209 7976ft 84kts
31-Aug-20 14:40 35.263567 -119.251224 209 8500ft 85kts
31-Aug-20 14:41 35.241592 -119.263749 166 8935ft 91kts
31-Aug-20 14:42 35.220574 -119.239591 127 9001ft 115kts
31-Aug-20 14:43 35.201910 -119.208438 125 8999ft 112kts
31-Aug-20 14:44 35.183858 -119.177594 125 8999ft 111kts
31-Aug-20 14:45 35.165816 -119.146761 125 8999ft 111kts
31-Aug-20 14:46 35.147712 -119.115848 125 8999ft 111kts
31-Aug-20 14:47 35.129608 -119.084964 125 8999ft 111kts
31-Aug-20 14:48 35.111496 -119.054091 125 9000ft 111kts
31-Aug-20 14:49 35.093361 -119.023207 125 8999ft 111kts
31-Aug-20 14:50 35.075229 -118.992356 125 8999ft 111kts
31-Aug-20 14:51 35.057105 -118.961544 125 8999ft 111kts
31-Aug-20 14:52 35.036187 -118.933758 139 8999ft 111kts
31-Aug-20 14:53 35.012404 -118.909434 140 9000ft 111kts
31-Aug-20 14:54 34.988494 -118.885170 140 9000ft 111kts
31-Aug-20 14:55 34.964651 -118.860993 140 9000ft 111kts
31-Aug-20 14:56 34.940692 -118.836711 140 9000ft 111kts
31-Aug-20 14:57 34.916759 -118.812484 140 9000ft 111kts
31-Aug-20 14:58 34.892808 -118.788263 140 8999ft 111kts
31-Aug-20 14:59 34.868899 -118.764106 140 8999ft 111kts
31-Aug-20 15:00 34.844987 -118.739963 140 9000ft 111kts
31-Aug-20 15:01 34.821036 -118.715800 140 9000ft 111kts
31-Aug-20 15:02 34.797013 -118.691582 140 8999ft 111kts
31-Aug-20 15:03 34.773060 -118.667456 140 8999ft 111kts
31-Aug-20 15:04 34.749132 -118.643371 140 8999ft 111kts
31-Aug-20 15:05 34.725182 -118.619284 140 8999ft 112kts
31-Aug-20 15:06 34.701161 -118.595144 140 9000ft 112kts
31-Aug-20 15:07 34.674142 -118.579541 177 9000ft 111kts
31-Aug-20 15:08 34.643039 -118.581240 184 9000ft 112kts
31-Aug-20 15:09 34.611849 -118.584460 184 8999ft 112kts
31-Aug-20 15:10 34.581226 -118.579129 152 8675ft 126kts
31-Aug-20 15:11 34.549954 -118.558961 151 7671ft 126kts
31-Aug-20 15:12 34.520229 -118.536542 145 6666ft 125kts
31-Aug-20 15:13 34.489658 -118.517737 168 5888ft 117kts
31-Aug-20 15:14 34.457021 -118.513489 175 5382ft 116kts
31-Aug-20 15:15 34.424426 -118.510637 175 4879ft 117kts
31-Aug-20 15:16 34.391519 -118.507479 175 4371ft 117kts
31-Aug-20 15:17 34.358869 -118.504485 175 3869ft 117kts
31-Aug-20 15:18 34.326263 -118.501449 175 3363ft 118kts
31-Aug-20 15:19 34.294594 -118.498424 175 2660ft 112kts
31-Aug-20 15:20 34.263853 -118.495496 175 1961ft 109kts
31-Aug-20 15:21 34.238108 -118.493061 175 1382ft 75kts
31-Aug-20 15:22 34.219674 -118.491291 174 940ft 63kts
31-Aug-20 15:23 34.210146 -118.491115 263 806ft 0kts
31-Aug-20 15:24 34.206796 -118.491266 188 806ft 10kts
31-Aug-20 15:25 34.206527 -118.493491 90 806ft 0kts
31-Aug-20 15:26 34.206527 -118.493491 90 806ft 0kts

Navigation Log

Ident Type
Flight plan parsing failed, navigation log unavailable